createdAt,value
2023-04-13T00:00:28.064Z,1.18
2023-04-13T00:03:19.214Z,1.15
2023-04-13T00:06:00.001Z,1.13
2023-04-13T00:08:49.017Z,1.10
2023-04-13T00:11:22.139Z,1.12
2023-04-13T00:14:09.026Z,1.13
2023-04-13T00:16:42.421Z,1.14
2023-04-13T00:19:29.103Z,1.15
2023-04-13T00:22:04.226Z,1.18
2023-04-13T00:24:51.006Z,1.16
2023-04-13T00:27:26.706Z,1.12
2023-04-13T00:30:18.009Z,1.10
2023-04-13T00:32:52.152Z,1.10
2023-04-13T00:35:39.001Z,1.09
2023-04-13T00:38:12.087Z,1.11
2023-04-13T00:40:58.989Z,1.08
2023-04-13T00:43:39.070Z,1.10
2023-04-13T00:46:33.039Z,1.12
2023-04-13T00:49:22.027Z,1.12
2023-04-13T00:51:55.206Z,1.14
2023-04-13T00:54:42.008Z,1.14
2023-04-13T00:57:15.162Z,1.17
2023-04-13T01:00:13.000Z,1.23
2023-04-13T01:03:08.370Z,1.27
2023-04-13T01:06:12.997Z,1.28
2023-04-13T01:08:54.180Z,1.33
2023-04-13T01:12:14.984Z,1.34
2023-04-13T01:15:15.042Z,1.35
2023-04-13T01:18:05.048Z,1.34
2023-04-13T01:20:47.056Z,1.37
2023-04-13T01:24:03.013Z,1.37
2023-04-13T01:27:04.020Z,1.39
2023-04-13T01:29:38.325Z,1.42
2023-04-13T01:32:25.002Z,1.43
2023-04-13T01:35:05.031Z,1.45
2023-04-13T01:38:00.007Z,1.53
2023-04-13T01:40:51.023Z,1.58
2023-04-13T01:43:26.195Z,1.59
2023-04-13T01:46:23.056Z,1.61
2023-04-13T01:49:04.084Z,1.64
2023-04-13T01:51:51.999Z,1.63
2023-04-13T01:54:29.133Z,1.61
2023-04-13T01:57:17.030Z,1.61
2023-04-13T01:59:50.168Z,1.60
2023-04-13T02:02:37.229Z,1.59
2023-04-13T02:05:27.508Z,1.59
2023-04-13T02:08:16.092Z,1.58
2023-04-13T02:10:56.015Z,1.59
2023-04-13T02:13:50.038Z,1.60
2023-04-13T02:16:37.114Z,1.59
2023-04-13T02:19:17.167Z,1.60
2023-04-13T02:22:04.077Z,1.60
2023-04-13T02:24:37.117Z,1.57
2023-04-13T02:27:24.077Z,1.57
2023-04-13T02:30:04.054Z,1.56
2023-04-13T02:33:00.209Z,1.55
2023-04-13T02:35:54.039Z,1.56
2023-04-13T02:38:44.060Z,1.58
2023-04-13T02:41:31.029Z,1.58
2023-04-13T02:44:25.023Z,1.59
2023-04-13T02:47:13.045Z,1.60
2023-04-13T02:49:51.573Z,1.61
2023-04-13T02:52:38.057Z,1.61
2023-04-13T02:55:19.061Z,1.62
2023-04-13T02:58:13.053Z,1.64
2023-04-13T03:01:07.062Z,1.67
2023-04-13T03:04:01.311Z,1.66
2023-04-13T03:06:56.059Z,1.63
2023-04-13T03:09:50.039Z,1.60
2023-04-13T03:12:23.138Z,1.60
2023-04-13T03:15:14.051Z,1.63
2023-04-13T03:17:54.091Z,1.69
2023-04-13T03:20:48.083Z,1.68
2023-04-13T03:23:36.086Z,1.64
2023-04-13T03:26:09.154Z,1.63
2023-04-13T03:28:58.405Z,1.66
2023-04-13T03:31:31.389Z,1.66
2023-04-13T03:34:18.111Z,1.67
2023-04-13T03:36:51.381Z,1.67
2023-04-13T03:39:31.066Z,1.66
2023-04-13T03:42:11.049Z,1.70
2023-04-13T03:44:44.494Z,1.74
2023-04-13T03:47:31.106Z,1.77
2023-04-13T03:50:04.489Z,1.76
2023-04-13T03:52:51.053Z,1.76
2023-04-13T03:55:24.153Z,1.75
2023-04-13T03:58:11.104Z,1.74
2023-04-13T04:00:58.076Z,1.77
2023-04-13T04:03:45.151Z,1.75
2023-04-13T04:06:18.204Z,1.70
2023-04-13T04:09:05.063Z,1.68
2023-04-13T04:11:38.205Z,1.67
2023-04-13T04:14:26.097Z,1.65
2023-04-13T04:16:59.171Z,1.66
2023-04-13T04:19:46.077Z,1.70
2023-04-13T04:22:19.150Z,1.73
2023-04-13T04:25:06.109Z,1.74
2023-04-13T04:27:39.198Z,1.77
2023-04-13T04:30:28.086Z,1.79
2023-04-13T04:33:08.088Z,1.78
2023-04-13T04:35:59.096Z,1.76
2023-04-13T04:38:39.075Z,1.74
2023-04-13T04:41:33.071Z,1.74
2023-04-13T04:44:23.082Z,1.78
2023-04-13T04:46:56.180Z,1.77
2023-04-13T04:49:43.087Z,1.71
2023-04-13T04:52:25.057Z,1.73
2023-04-13T04:55:20.093Z,1.76
2023-04-13T04:58:14.082Z,1.82
2023-04-13T05:01:08.115Z,1.80
2023-04-13T05:03:55.122Z,1.74
2023-04-13T05:06:33.487Z,1.72
2023-04-13T05:09:21.104Z,1.74
2023-04-13T05:11:54.225Z,1.84
2023-04-13T05:14:41.099Z,1.96
2023-04-13T05:17:24.157Z,2.03
2023-04-13T05:20:13.075Z,2.08
2023-04-13T05:22:46.225Z,2.11
2023-04-13T05:25:34.086Z,2.14
2023-04-13T05:28:14.093Z,2.18
2023-04-13T05:31:08.106Z,2.18
2023-04-13T05:33:56.078Z,2.15
2023-04-13T05:36:36.096Z,2.22
2023-04-13T05:39:23.109Z,2.27
2023-04-13T05:41:56.292Z,2.35
2023-04-13T05:44:43.102Z,2.42
2023-04-13T05:47:23.163Z,2.53
2023-04-13T05:50:10.123Z,2.56
2023-04-13T05:52:43.264Z,2.63
2023-04-13T05:55:31.117Z,2.81
2023-04-13T05:58:04.198Z,3.00
2023-04-13T06:01:04.142Z,3.15
2023-04-13T06:03:51.330Z,3.26
2023-04-13T06:06:27.601Z,3.41
2023-04-13T06:09:15.107Z,3.64
2023-04-13T06:11:48.217Z,3.80
2023-04-13T06:14:35.159Z,4.01
2023-04-13T06:17:08.501Z,4.22
2023-04-13T06:19:55.123Z,4.49
2023-04-13T06:22:35.105Z,4.75
2023-04-13T06:25:23.118Z,5.12
2023-04-13T06:28:03.125Z,5.36
2023-04-13T06:30:57.212Z,5.44
2023-04-13T06:33:51.119Z,5.41
2023-04-13T06:36:38.124Z,5.41
2023-04-13T06:39:11.673Z,5.44
2023-04-13T06:41:58.137Z,5.47
2023-04-13T06:44:38.105Z,5.47
2023-04-13T06:47:32.167Z,5.52
2023-04-13T06:50:27.118Z,5.53
2023-04-13T06:53:21.133Z,5.59
2023-04-13T06:56:15.158Z,5.73
2023-04-13T06:59:06.329Z,5.83
2023-04-13T07:01:39.248Z,5.90
2023-04-13T07:04:29.081Z,6.02
2023-04-13T07:07:04.282Z,6.06
2023-04-13T07:09:51.134Z,6.16
2023-04-13T07:12:31.151Z,6.32
2023-04-13T07:15:18.136Z,6.44
2023-04-13T07:17:59.208Z,6.55
2023-04-13T07:20:46.143Z,6.67
2023-04-13T07:23:26.144Z,6.82
2023-04-13T07:26:20.156Z,6.97
2023-04-13T07:29:07.168Z,7.11
2023-04-13T07:31:40.408Z,7.25
2023-04-13T07:34:28.140Z,7.32
2023-04-13T07:37:08.154Z,7.42
2023-04-13T07:39:55.181Z,7.55
2023-04-13T07:42:28.234Z,7.69
2023-04-13T07:45:17.176Z,7.80
2023-04-13T07:47:50.712Z,7.93
2023-04-13T07:50:37.145Z,8.02
2023-04-13T07:53:10.314Z,8.16
2023-04-13T07:55:57.129Z,8.25
2023-04-13T07:58:30.352Z,8.35
2023-04-13T08:01:24.151Z,8.45
2023-04-13T08:04:11.243Z,8.56
2023-04-13T08:06:44.271Z,8.65
2023-04-13T08:09:31.157Z,8.76
2023-04-13T08:12:04.281Z,8.87
2023-04-13T08:14:51.164Z,8.94
2023-04-13T08:17:24.372Z,9.05
2023-04-13T08:20:15.187Z,9.25
2023-04-13T08:22:48.260Z,9.38
2023-04-13T08:25:35.175Z,9.41
2023-04-13T08:28:09.634Z,9.51
2023-04-13T08:30:56.196Z,9.62
2023-04-13T08:33:29.282Z,9.75
2023-04-13T08:36:16.183Z,9.86
2023-04-13T08:38:49.298Z,9.98
2023-04-13T08:41:38.187Z,10.08
2023-04-13T08:44:13.590Z,10.19
2023-04-13T08:47:00.170Z,10.29
2023-04-13T08:49:41.186Z,10.35
2023-04-13T08:52:28.265Z,10.47
2023-04-13T08:55:05.808Z,10.56
2023-04-13T08:57:55.180Z,10.63
2023-04-13T09:00:30.055Z,10.70
2023-04-13T09:03:19.332Z,10.76
2023-04-13T09:06:06.182Z,10.86
2023-04-13T09:09:00.501Z,10.94
2023-04-13T09:11:50.139Z,11.08
2023-04-13T09:14:32.167Z,11.20
2023-04-13T09:17:32.255Z,11.31
2023-04-13T09:20:37.870Z,11.40
2023-04-13T09:23:24.197Z,11.50
2023-04-13T09:26:17.189Z,11.59
2023-04-13T09:29:04.204Z,11.60
2023-04-13T09:31:47.233Z,11.63
2023-04-13T09:34:42.186Z,11.64
2023-04-13T09:37:36.219Z,11.66
2023-04-13T09:40:25.193Z,11.65
2023-04-13T09:43:02.404Z,11.63
2023-04-13T09:45:53.249Z,11.70
2023-04-13T09:48:28.369Z,11.80
2023-04-13T09:51:16.223Z,11.81
2023-04-13T09:53:51.450Z,11.86
2023-04-13T09:56:53.245Z,11.96
2023-04-13T09:59:30.313Z,12.09
2023-04-13T10:02:25.335Z,12.28
2023-04-13T10:05:13.242Z,12.37
2023-04-13T10:07:56.242Z,12.69
2023-04-13T10:10:51.212Z,13.28
2023-04-13T10:13:50.206Z,13.58
2023-04-13T10:17:03.227Z,13.64
2023-04-13T10:19:43.295Z,13.64
2023-04-13T10:22:30.234Z,13.70
2023-04-13T10:25:03.314Z,13.80
2023-04-13T10:27:50.245Z,13.81
2023-04-13T10:30:24.327Z,13.91
2023-04-13T10:33:17.243Z,14.00
2023-04-13T10:36:04.952Z,14.05
2023-04-13T10:38:53.233Z,14.12
2023-04-13T10:41:31.330Z,14.11
2023-04-13T10:44:18.234Z,14.13
2023-04-13T10:46:59.251Z,14.27
2023-04-13T10:49:47.240Z,14.49
2023-04-13T10:52:21.600Z,14.64
2023-04-13T10:55:09.309Z,14.95
2023-04-13T10:57:49.236Z,15.16
2023-04-13T11:00:46.445Z,15.39
2023-04-13T11:03:56.817Z,15.30
2023-04-13T11:06:58.271Z,15.39
2023-04-13T11:09:48.270Z,15.51
2023-04-13T11:12:21.537Z,15.49
2023-04-13T11:15:08.292Z,15.34
2023-04-13T11:17:41.420Z,15.30
2023-04-13T11:20:48.267Z,15.52
2023-04-13T11:23:24.006Z,15.54
2023-04-13T11:26:12.302Z,15.65
2023-04-13T11:28:55.279Z,15.83
2023-04-13T11:31:46.291Z,16.14
2023-04-13T11:34:19.374Z,16.37
2023-04-13T11:37:08.250Z,16.54
2023-04-13T11:39:50.284Z,16.82
2023-04-13T11:42:45.274Z,17.21
2023-04-13T11:45:34.289Z,17.23
2023-04-13T11:48:15.270Z,17.18
2023-04-13T11:51:18.273Z,17.20
2023-04-13T11:54:13.278Z,17.40
2023-04-13T11:57:01.303Z,17.44
2023-04-13T11:59:34.365Z,17.17
2023-04-13T12:02:29.857Z,16.89
2023-04-13T12:05:34.710Z,16.83
2023-04-13T12:08:15.591Z,16.81
2023-04-13T12:11:39.403Z,16.66
2023-04-13T12:14:10.276Z,16.24
2023-04-13T12:19:43.802Z,16.00
2023-04-13T12:22:57.547Z,15.97
2023-04-13T12:25:54.551Z,15.83
2023-04-13T12:28:43.288Z,15.64
2023-04-13T12:31:17.487Z,15.57
2023-04-13T12:34:04.300Z,15.50
2023-04-13T12:36:37.471Z,15.30
2023-04-13T12:39:24.304Z,15.04
2023-04-13T12:41:57.716Z,14.91
2023-04-13T12:44:44.314Z,14.78
2023-04-13T12:47:17.599Z,14.65
2023-04-13T12:50:04.299Z,14.35
2023-04-13T12:52:44.311Z,14.18
2023-04-13T12:55:38.341Z,14.16
2023-04-13T12:58:25.315Z,14.17
2023-04-13T13:00:58.518Z,14.18
2023-04-13T13:03:45.442Z,14.15
2023-04-13T13:06:18.419Z,14.12
2023-04-13T13:09:05.338Z,14.16
2023-04-13T13:11:45.327Z,14.15
2023-04-13T13:14:39.323Z,14.14
2023-04-13T13:17:26.378Z,14.18
2023-04-13T13:20:00.575Z,14.25
2023-04-13T13:22:49.299Z,14.18
2023-04-13T13:25:29.314Z,14.23
2023-04-13T13:28:23.316Z,14.32
2023-04-13T13:31:10.324Z,14.37
2023-04-13T13:33:43.568Z,14.30
2023-04-13T13:36:30.336Z,14.28
2023-04-13T13:39:05.297Z,14.32
2023-04-13T13:41:52.314Z,14.31
2023-04-13T13:44:33.776Z,14.35
2023-04-13T13:47:28.429Z,14.30
2023-04-13T13:50:22.347Z,14.27
2023-04-13T13:53:09.334Z,14.08
2023-04-13T13:55:42.481Z,14.03
2023-04-13T13:58:29.342Z,13.97
2023-04-13T14:01:09.486Z,13.89
2023-04-13T14:04:03.437Z,13.81
2023-04-13T14:06:50.344Z,13.65
2023-04-13T14:09:31.360Z,13.59
2023-04-13T14:12:25.346Z,13.50
2023-04-13T14:15:16.366Z,13.54
2023-04-13T14:18:02.576Z,13.43
2023-04-13T14:20:57.343Z,13.39
2023-04-13T14:23:37.386Z,13.37
2023-04-13T14:26:31.351Z,13.30
2023-04-13T14:29:18.394Z,13.30
2023-04-13T14:32:01.353Z,13.31
2023-04-13T14:34:55.360Z,13.36
2023-04-13T14:37:43.361Z,13.38
2023-04-13T14:40:21.754Z,13.35
2023-04-13T14:43:09.357Z,13.38
2023-04-13T14:45:42.451Z,13.37
2023-04-13T14:48:29.373Z,13.38
2023-04-13T14:51:02.474Z,13.33
2023-04-13T14:53:49.383Z,13.34
2023-04-13T14:56:23.883Z,13.38
2023-04-13T14:59:10.367Z,13.43
2023-04-13T15:01:50.460Z,13.46
2023-04-13T15:04:44.482Z,13.43
2023-04-13T15:07:36.409Z,13.38
2023-04-13T15:10:09.524Z,13.38
2023-04-13T15:12:56.370Z,13.34
2023-04-13T15:15:36.473Z,13.37
2023-04-13T15:18:30.363Z,13.32
2023-04-13T15:21:17.400Z,13.27
2023-04-13T15:23:57.385Z,13.21
2023-04-13T15:26:47.392Z,13.12
2023-04-13T15:29:20.812Z,13.10
2023-04-13T15:32:08.495Z,13.10
2023-04-13T15:34:41.490Z,13.06
2023-04-13T15:37:32.416Z,13.04
2023-04-13T15:40:07.693Z,12.93
2023-04-13T15:42:55.386Z,12.97
2023-04-13T15:45:35.474Z,12.94
2023-04-13T15:48:22.419Z,12.92
2023-04-13T15:51:10.427Z,12.93
2023-04-13T15:54:04.423Z,12.92
2023-04-13T15:56:51.392Z,12.84
2023-04-13T15:59:26.785Z,12.79
2023-04-13T16:02:20.429Z,12.71
2023-04-13T16:05:14.407Z,12.61
2023-04-13T16:08:05.408Z,12.58
2023-04-13T16:10:41.612Z,12.54
2023-04-13T16:13:37.582Z,12.47
2023-04-13T16:16:20.962Z,12.40
2023-04-13T16:19:07.423Z,12.34
2023-04-13T16:21:43.393Z,12.26
2023-04-13T16:24:30.393Z,12.18
2023-04-13T16:27:03.547Z,12.14
2023-04-13T16:29:50.415Z,12.08
2023-04-13T16:32:30.442Z,12.01
2023-04-13T16:35:18.414Z,11.93
2023-04-13T16:37:58.408Z,11.91
2023-04-13T16:40:52.427Z,11.83
2023-04-13T16:43:46.401Z,11.77
2023-04-13T16:46:33.565Z,11.68
2023-04-13T16:49:06.538Z,11.62
2023-04-13T16:51:54.456Z,11.59
2023-04-13T16:54:27.624Z,11.52
2023-04-13T16:57:14.432Z,11.46
2023-04-13T16:59:47.535Z,11.38
2023-04-13T17:02:41.509Z,11.34
2023-04-13T17:05:35.427Z,11.29
2023-04-13T17:08:29.421Z,11.24
2023-04-13T17:11:23.445Z,11.17
2023-04-13T17:14:10.424Z,11.05
2023-04-13T17:16:43.696Z,11.02
2023-04-13T17:19:30.490Z,11.01
2023-04-13T17:22:03.530Z,10.96
2023-04-13T17:24:50.439Z,10.87
2023-04-13T17:27:23.533Z,10.84
2023-04-13T17:30:10.430Z,10.77
2023-04-13T17:32:43.693Z,10.70
2023-04-13T17:35:30.435Z,10.61
2023-04-13T17:38:03.552Z,10.55
2023-04-13T17:40:51.443Z,10.43
2023-04-13T17:43:24.534Z,10.34
2023-04-13T17:46:11.494Z,10.27
2023-04-13T17:48:45.544Z,10.19
2023-04-13T17:51:32.468Z,10.08
2023-04-13T17:54:07.830Z,9.96
2023-04-13T17:56:54.478Z,9.87
2023-04-13T17:59:27.553Z,9.78
2023-04-13T18:02:21.525Z,9.68
2023-04-13T18:05:21.462Z,9.60
2023-04-13T18:08:08.446Z,9.48
2023-04-13T18:10:41.578Z,9.38
2023-04-13T18:13:28.487Z,9.29
2023-04-13T18:16:02.748Z,9.22
2023-04-13T18:18:49.461Z,9.13
2023-04-13T18:21:22.550Z,9.07
2023-04-13T18:24:09.522Z,9.01
2023-04-13T18:26:49.526Z,8.93
2023-04-13T18:29:43.471Z,8.87
2023-04-13T18:32:30.501Z,8.78
2023-04-13T18:35:04.714Z,8.72
2023-04-13T18:37:51.493Z,8.66
2023-04-13T18:40:24.573Z,8.59
2023-04-13T18:43:11.483Z,8.51
2023-04-13T18:45:45.581Z,8.48
2023-04-13T18:48:32.509Z,8.47
2023-04-13T18:51:16.491Z,8.44
2023-04-13T18:54:10.490Z,8.40
2023-04-13T18:56:57.500Z,8.32
2023-04-13T18:59:30.671Z,8.28
2023-04-13T19:02:18.592Z,8.23
2023-04-13T19:05:13.553Z,8.22
2023-04-13T19:08:04.490Z,8.22
2023-04-13T19:10:44.520Z,8.19
2023-04-13T19:13:31.487Z,8.14
2023-04-13T19:16:11.527Z,8.12
2023-04-13T19:18:58.864Z,8.12
2023-04-13T19:21:39.484Z,8.10
2023-04-13T19:24:33.491Z,8.09
2023-04-13T19:27:21.476Z,8.08
2023-04-13T19:30:01.533Z,8.10
2023-04-13T19:33:01.531Z,8.09
2023-04-13T19:35:55.508Z,8.06
2023-04-13T19:38:42.513Z,8.02
2023-04-13T19:41:19.590Z,7.97
2023-04-13T19:44:07.493Z,7.98
2023-04-13T19:46:41.615Z,7.97
2023-04-13T19:49:28.529Z,7.99
2023-04-13T19:52:08.522Z,8.02
2023-04-13T19:55:02.516Z,8.02
2023-04-13T19:57:49.504Z,8.02
2023-04-13T20:00:22.704Z,8.02
2023-04-13T20:03:09.653Z,8.02
2023-04-13T20:05:42.743Z,8.00
2023-04-13T20:08:30.517Z,7.99
2023-04-13T20:11:03.595Z,7.95
2023-04-13T20:13:52.511Z,7.93
2023-04-13T20:16:26.532Z,7.92
2023-04-13T20:19:15.492Z,7.89
2023-04-13T20:21:51.318Z,7.89
2023-04-13T20:24:38.499Z,7.91
2023-04-13T20:27:11.684Z,7.89
2023-04-13T20:29:58.537Z,7.90
2023-04-13T20:32:31.638Z,7.90
2023-04-13T20:35:18.541Z,7.91
2023-04-13T20:37:51.764Z,7.93
2023-04-13T20:40:42.550Z,7.94
2023-04-13T20:43:17.822Z,7.93
2023-04-13T20:46:04.545Z,7.92
2023-04-13T20:48:49.025Z,7.93
2023-04-13T20:51:42.537Z,7.94
2023-04-13T20:54:29.547Z,7.94
2023-04-13T20:57:09.533Z,7.92
2023-04-13T21:00:03.586Z,7.91
2023-04-13T21:02:59.643Z,7.90
2023-04-13T21:05:53.535Z,7.86
2023-04-13T21:08:47.547Z,7.82
2023-04-13T21:11:34.531Z,7.79
2023-04-13T21:14:07.666Z,7.80
2023-04-13T21:16:47.612Z,7.77
2023-04-13T21:19:28.288Z,7.73
2023-04-13T21:22:07.803Z,7.70
2023-04-13T21:24:47.570Z,7.67
2023-04-13T21:27:22.444Z,7.67
2023-04-13T21:30:09.731Z,7.67
2023-04-13T21:32:49.611Z,7.67
2023-04-13T21:35:43.536Z,7.65
2023-04-13T21:38:30.644Z,7.65
2023-04-13T21:41:06.643Z,7.64
2023-04-13T21:43:53.531Z,7.63
2023-04-13T21:46:27.936Z,7.62
2023-04-13T21:49:14.539Z,7.62
2023-04-13T21:51:47.678Z,7.61
2023-04-13T21:54:34.550Z,7.64
2023-04-13T21:57:07.680Z,7.66
2023-04-13T21:59:54.588Z,7.68
2023-04-13T22:02:27.807Z,7.68
2023-04-13T22:05:15.565Z,7.65
2023-04-13T22:07:48.705Z,7.65
2023-04-13T22:10:35.602Z,7.63
2023-04-13T22:13:15.587Z,7.61
2023-04-13T22:16:09.718Z,7.60
2023-04-13T22:18:56.588Z,7.59
2023-04-13T22:21:29.755Z,7.57
2023-04-13T22:24:16.594Z,7.55
2023-04-13T22:26:49.682Z,7.53
2023-04-13T22:29:36.601Z,7.49
2023-04-13T22:32:16.690Z,7.47
2023-04-13T22:35:10.572Z,7.42
2023-04-13T22:37:57.656Z,7.38
2023-04-13T22:40:31.146Z,7.33
2023-04-13T22:43:17.579Z,7.29
2023-04-13T22:45:57.575Z,7.24
2023-04-13T22:48:44.562Z,7.17
2023-04-13T22:51:24.593Z,7.10
2023-04-13T22:54:11.601Z,7.05
2023-04-13T22:56:51.635Z,7.01
2023-04-13T22:59:45.632Z,6.96
2023-04-13T23:02:32.794Z,6.94
2023-04-13T23:05:06.993Z,6.94
2023-04-13T23:07:53.590Z,6.92
2023-04-13T23:10:27.191Z,6.89
2023-04-13T23:13:13.738Z,6.86
2023-04-13T23:15:46.763Z,6.83
2023-04-13T23:18:34.595Z,6.80
2023-04-13T23:21:15.764Z,6.76
2023-04-13T23:24:02.623Z,6.70
2023-04-13T23:26:35.850Z,6.66
2023-04-13T23:29:22.698Z,6.63
2023-04-13T23:32:02.680Z,6.61
2023-04-13T23:34:49.594Z,6.60
2023-04-13T23:37:29.689Z,6.58
2023-04-13T23:40:23.573Z,6.56
2023-04-13T23:43:10.664Z,6.53
2023-04-13T23:45:44.237Z,6.51
2023-04-13T23:48:31.749Z,6.44
2023-04-13T23:51:04.710Z,6.40
2023-04-13T23:53:51.719Z,6.39
2023-04-13T23:56:24.802Z,6.37
2023-04-13T23:59:11.646Z,6.36
